sensor_id;sensor_type;location;lat;lon;timestamp;P1;durP1;ratioP1;P2;durP2;ratioP2
63286;SDS011;49410;55.708;37.522;2022-11-18T00:01:43;7.10;;;2.65;;
63286;SDS011;49410;55.708;37.522;2022-11-18T00:04:08;7.22;;;2.90;;
63286;SDS011;49410;55.708;37.522;2022-11-18T00:06:34;5.85;;;2.50;;
63286;SDS011;49410;55.708;37.522;2022-11-18T00:08:59;6.63;;;2.63;;
63286;SDS011;49410;55.708;37.522;2022-11-18T00:11:25;8.10;;;2.95;;
63286;SDS011;49410;55.708;37.522;2022-11-18T00:16:43;7.22;;;2.50;;
63286;SDS011;49410;55.708;37.522;2022-11-18T00:19:10;8.35;;;2.60;;
63286;SDS011;49410;55.708;37.522;2022-11-18T00:21:35;6.93;;;2.67;;
63286;SDS011;49410;55.708;37.522;2022-11-18T00:24:01;6.15;;;2.42;;
63286;SDS011;49410;55.708;37.522;2022-11-18T00:26:26;7.15;;;2.88;;
63286;SDS011;49410;55.708;37.522;2022-11-18T00:28:52;5.00;;;2.15;;
63286;SDS011;49410;55.708;37.522;2022-11-18T00:31:17;9.38;;;3.15;;
63286;SDS011;49410;55.708;37.522;2022-11-18T00:33:43;9.98;;;3.05;;
63286;SDS011;49410;55.708;37.522;2022-11-18T00:36:09;7.47;;;2.55;;
63286;SDS011;49410;55.708;37.522;2022-11-18T00:38:35;10.57;;;2.92;;
63286;SDS011;49410;55.708;37.522;2022-11-18T00:41:03;5.68;;;2.35;;
63286;SDS011;49410;55.708;37.522;2022-11-18T00:46:00;6.15;;;2.33;;
63286;SDS011;49410;55.708;37.522;2022-11-18T00:48:26;4.90;;;1.85;;
63286;SDS011;49410;55.708;37.522;2022-11-18T00:50:52;7.45;;;2.47;;
63286;SDS011;49410;55.708;37.522;2022-11-18T00:53:20;7.07;;;2.42;;
63286;SDS011;49410;55.708;37.522;2022-11-18T00:55:47;7.22;;;2.55;;
63286;SDS011;49410;55.708;37.522;2022-11-18T00:58:13;6.90;;;2.72;;
63286;SDS011;49410;55.708;37.522;2022-11-18T01:00:39;6.63;;;2.30;;
63286;SDS011;49410;55.708;37.522;2022-11-18T01:03:06;7.65;;;2.63;;
63286;SDS011;49410;55.708;37.522;2022-11-18T01:05:31;5.75;;;2.55;;
63286;SDS011;49410;55.708;37.522;2022-11-18T01:07:57;7.35;;;2.70;;
63286;SDS011;49410;55.708;37.522;2022-11-18T01:10:23;5.90;;;2.63;;
63286;SDS011;49410;55.708;37.522;2022-11-18T01:12:48;9.18;;;2.30;;
63286;SDS011;49410;55.708;37.522;2022-11-18T01:15:37;4.65;;;1.80;;
63286;SDS011;49410;55.708;37.522;2022-11-18T01:18:04;7.50;;;2.78;;
63286;SDS011;49410;55.708;37.522;2022-11-18T01:20:31;8.38;;;2.83;;
63286;SDS011;49410;55.708;37.522;2022-11-18T01:22:57;7.88;;;2.88;;
63286;SDS011;49410;55.708;37.522;2022-11-18T01:25:22;9.68;;;2.97;;
63286;SDS011;49410;55.708;37.522;2022-11-18T01:27:48;7.20;;;2.67;;
63286;SDS011;49410;55.708;37.522;2022-11-18T01:30:14;6.13;;;2.13;;
63286;SDS011;49410;55.708;37.522;2022-11-18T01:32:41;6.40;;;2.72;;
63286;SDS011;49410;55.708;37.522;2022-11-18T01:35:07;6.53;;;2.60;;
63286;SDS011;49410;55.708;37.522;2022-11-18T01:37:33;8.55;;;2.53;;
63286;SDS011;49410;55.708;37.522;2022-11-18T01:39:59;6.30;;;2.30;;
63286;SDS011;49410;55.708;37.522;2022-11-18T01:42:25;6.60;;;2.45;;
63286;SDS011;49410;55.708;37.522;2022-11-18T01:47:34;6.05;;;2.30;;
63286;SDS011;49410;55.708;37.522;2022-11-18T01:50:04;7.05;;;2.65;;
63286;SDS011;49410;55.708;37.522;2022-11-18T01:52:31;7.43;;;2.85;;
63286;SDS011;49410;55.708;37.522;2022-11-18T01:55:01;9.63;;;3.15;;
63286;SDS011;49410;55.708;37.522;2022-11-18T01:57:30;6.30;;;2.40;;
63286;SDS011;49410;55.708;37.522;2022-11-18T01:59:57;7.45;;;2.75;;
63286;SDS011;49410;55.708;37.522;2022-11-18T02:02:27;8.02;;;2.92;;
63286;SDS011;49410;55.708;37.522;2022-11-18T02:04:56;5.82;;;2.17;;
63286;SDS011;49410;55.708;37.522;2022-11-18T02:07:23;6.50;;;3.00;;
63286;SDS011;49410;55.708;37.522;2022-11-18T02:09:49;6.45;;;3.28;;
63286;SDS011;49410;55.708;37.522;2022-11-18T02:12:17;7.43;;;2.78;;
63286;SDS011;49410;55.708;37.522;2022-11-18T02:34:34;6.63;;;2.33;;
63286;SDS011;49410;55.708;37.522;2022-11-18T02:39:53;8.25;;;2.83;;
63286;SDS011;49410;55.708;37.522;2022-11-18T02:42:19;7.75;;;2.75;;
63286;SDS011;49410;55.708;37.522;2022-11-18T02:44:49;7.15;;;2.60;;
63286;SDS011;49410;55.708;37.522;2022-11-18T02:47:19;7.55;;;3.17;;
63286;SDS011;49410;55.708;37.522;2022-11-18T02:49:48;8.50;;;2.90;;
63286;SDS011;49410;55.708;37.522;2022-11-18T02:52:19;8.20;;;2.95;;
63286;SDS011;49410;55.708;37.522;2022-11-18T02:54:46;7.53;;;2.63;;
63286;SDS011;49410;55.708;37.522;2022-11-18T02:57:14;7.30;;;2.30;;
63286;SDS011;49410;55.708;37.522;2022-11-18T02:59:40;7.75;;;2.83;;
63286;SDS011;49410;55.708;37.522;2022-11-18T03:02:06;7.90;;;2.47;;
63286;SDS011;49410;55.708;37.522;2022-11-18T03:04:34;8.68;;;3.10;;
63286;SDS011;49410;55.708;37.522;2022-11-18T03:07:33;5.47;;;2.30;;
63286;SDS011;49410;55.708;37.522;2022-11-18T03:09:54;7.15;;;2.58;;
63286;SDS011;49410;55.708;37.522;2022-11-18T03:12:28;7.32;;;2.72;;
63286;SDS011;49410;55.708;37.522;2022-11-18T03:18:31;5.13;;;2.08;;
63286;SDS011;49410;55.708;37.522;2022-11-18T03:21:07;7.35;;;2.92;;
63286;SDS011;49410;55.708;37.522;2022-11-18T03:26:30;7.28;;;2.95;;
63286;SDS011;49410;55.708;37.522;2022-11-18T03:29:04;8.73;;;3.10;;
63286;SDS011;49410;55.708;37.522;2022-11-18T03:31:55;7.88;;;2.88;;
63286;SDS011;49410;55.708;37.522;2022-11-18T03:34:38;5.72;;;2.20;;
63286;SDS011;49410;55.708;37.522;2022-11-18T03:37:09;7.68;;;3.10;;
63286;SDS011;49410;55.708;37.522;2022-11-18T03:39:39;6.03;;;2.40;;
63286;SDS011;49410;55.708;37.522;2022-11-18T03:44:53;6.25;;;2.42;;
63286;SDS011;49410;55.708;37.522;2022-11-18T03:47:33;6.20;;;2.58;;
63286;SDS011;49410;55.708;37.522;2022-11-18T03:52:53;7.63;;;2.97;;
63286;SDS011;49410;55.708;37.522;2022-11-18T03:57:53;7.43;;;2.67;;
63286;SDS011;49410;55.708;37.522;2022-11-18T04:00:19;10.65;;;2.92;;
63286;SDS011;49410;55.708;37.522;2022-11-18T04:02:45;6.50;;;2.85;;
63286;SDS011;49410;55.708;37.522;2022-11-18T04:05:13;6.57;;;2.63;;
63286;SDS011;49410;55.708;37.522;2022-11-18T04:15:49;8.05;;;2.47;;
63286;SDS011;49410;55.708;37.522;2022-11-18T04:18:14;7.07;;;2.85;;
63286;SDS011;49410;55.708;37.522;2022-11-18T04:20:40;6.63;;;3.03;;
63286;SDS011;49410;55.708;37.522;2022-11-18T04:23:06;8.30;;;3.22;;
63286;SDS011;49410;55.708;37.522;2022-11-18T04:25:32;8.48;;;2.95;;
63286;SDS011;49410;55.708;37.522;2022-11-18T04:27:58;6.18;;;2.67;;
63286;SDS011;49410;55.708;37.522;2022-11-18T04:30:24;5.72;;;2.47;;
63286;SDS011;49410;55.708;37.522;2022-11-18T04:32:49;7.47;;;2.90;;
63286;SDS011;49410;55.708;37.522;2022-11-18T04:35:15;7.10;;;2.50;;
63286;SDS011;49410;55.708;37.522;2022-11-18T04:37:41;8.82;;;2.90;;
63286;SDS011;49410;55.708;37.522;2022-11-18T04:40:06;8.80;;;2.80;;
63286;SDS011;49410;55.708;37.522;2022-11-18T04:42:32;9.25;;;2.92;;
63286;SDS011;49410;55.708;37.522;2022-11-18T04:44:58;7.72;;;2.78;;
63286;SDS011;49410;55.708;37.522;2022-11-18T04:47:24;5.63;;;2.58;;
63286;SDS011;49410;55.708;37.522;2022-11-18T04:49:49;5.78;;;2.58;;
63286;SDS011;49410;55.708;37.522;2022-11-18T04:52:15;8.60;;;2.45;;
63286;SDS011;49410;55.708;37.522;2022-11-18T04:57:06;6.53;;;2.28;;
63286;SDS011;49410;55.708;37.522;2022-11-18T04:59:32;7.40;;;3.00;;
63286;SDS011;49410;55.708;37.522;2022-11-18T05:01:58;8.13;;;3.22;;
63286;SDS011;49410;55.708;37.522;2022-11-18T05:04:28;5.85;;;2.47;;
63286;SDS011;49410;55.708;37.522;2022-11-18T05:06:55;6.32;;;2.58;;
63286;SDS011;49410;55.708;37.522;2022-11-18T05:09:21;8.75;;;3.05;;
63286;SDS011;49410;55.708;37.522;2022-11-18T05:11:47;9.10;;;2.92;;
63286;SDS011;49410;55.708;37.522;2022-11-18T05:14:31;5.70;;;2.53;;
63286;SDS011;49410;55.708;37.522;2022-11-18T05:16:58;9.02;;;3.53;;
63286;SDS011;49410;55.708;37.522;2022-11-18T05:19:25;4.82;;;2.20;;
63286;SDS011;49410;55.708;37.522;2022-11-18T05:21:51;7.05;;;2.90;;
63286;SDS011;49410;55.708;37.522;2022-11-18T05:24:16;7.65;;;2.78;;
63286;SDS011;49410;55.708;37.522;2022-11-18T05:26:42;6.22;;;2.50;;
63286;SDS011;49410;55.708;37.522;2022-11-18T05:29:08;5.72;;;2.25;;
63286;SDS011;49410;55.708;37.522;2022-11-18T05:31:33;8.07;;;2.65;;
63286;SDS011;49410;55.708;37.522;2022-11-18T05:33:59;4.85;;;1.83;;
63286;SDS011;49410;55.708;37.522;2022-11-18T05:36:24;7.15;;;2.60;;
63286;SDS011;49410;55.708;37.522;2022-11-18T05:38:50;7.72;;;2.75;;
63286;SDS011;49410;55.708;37.522;2022-11-18T05:41:16;8.25;;;3.35;;
63286;SDS011;49410;55.708;37.522;2022-11-18T05:44:02;7.38;;;2.72;;
63286;SDS011;49410;55.708;37.522;2022-11-18T05:46:28;6.97;;;2.50;;
63286;SDS011;49410;55.708;37.522;2022-11-18T05:48:55;5.68;;;2.35;;
63286;SDS011;49410;55.708;37.522;2022-11-18T05:51:20;9.00;;;3.30;;
63286;SDS011;49410;55.708;37.522;2022-11-18T05:53:47;7.30;;;2.80;;
63286;SDS011;49410;55.708;37.522;2022-11-18T05:56:26;5.78;;;2.10;;
63286;SDS011;49410;55.708;37.522;2022-11-18T05:58:53;10.27;;;3.28;;
63286;SDS011;49410;55.708;37.522;2022-11-18T06:01:20;6.65;;;2.80;;
63286;SDS011;49410;55.708;37.522;2022-11-18T06:03:50;6.93;;;2.50;;
63286;SDS011;49410;55.708;37.522;2022-11-18T06:06:16;9.77;;;3.08;;
63286;SDS011;49410;55.708;37.522;2022-11-18T06:08:49;7.07;;;2.97;;
63286;SDS011;49410;55.708;37.522;2022-11-18T06:11:26;6.40;;;2.30;;
63286;SDS011;49410;55.708;37.522;2022-11-18T06:14:02;7.80;;;2.92;;
63286;SDS011;49410;55.708;37.522;2022-11-18T06:16:31;5.93;;;2.53;;
63286;SDS011;49410;55.708;37.522;2022-11-18T06:18:58;6.93;;;3.47;;
63286;SDS011;49410;55.708;37.522;2022-11-18T06:21:26;6.18;;;2.30;;
63286;SDS011;49410;55.708;37.522;2022-11-18T06:23:52;6.93;;;2.60;;
63286;SDS011;49410;55.708;37.522;2022-11-18T06:28:44;6.88;;;2.72;;
63286;SDS011;49410;55.708;37.522;2022-11-18T06:31:12;7.85;;;2.72;;
63286;SDS011;49410;55.708;37.522;2022-11-18T06:33:38;6.43;;;2.67;;
63286;SDS011;49410;55.708;37.522;2022-11-18T06:36:03;7.43;;;2.47;;
63286;SDS011;49410;55.708;37.522;2022-11-18T06:38:29;8.75;;;2.90;;
63286;SDS011;49410;55.708;37.522;2022-11-18T06:41:01;7.82;;;3.30;;
63286;SDS011;49410;55.708;37.522;2022-11-18T06:43:26;7.82;;;3.10;;
63286;SDS011;49410;55.708;37.522;2022-11-18T06:46:09;10.02;;;3.10;;
63286;SDS011;49410;55.708;37.522;2022-11-18T06:48:54;5.50;;;2.45;;
63286;SDS011;49410;55.708;37.522;2022-11-18T06:53:46;9.70;;;2.65;;
63286;SDS011;49410;55.708;37.522;2022-11-18T06:56:12;8.57;;;3.30;;
63286;SDS011;49410;55.708;37.522;2022-11-18T06:58:39;7.53;;;2.97;;
63286;SDS011;49410;55.708;37.522;2022-11-18T07:03:41;6.38;;;2.53;;
63286;SDS011;49410;55.708;37.522;2022-11-18T07:06:08;6.38;;;2.42;;
63286;SDS011;49410;55.708;37.522;2022-11-18T07:08:35;9.00;;;3.13;;
63286;SDS011;49410;55.708;37.522;2022-11-18T07:11:06;8.23;;;2.60;;
63286;SDS011;49410;55.708;37.522;2022-11-18T07:13:33;8.02;;;2.65;;
63286;SDS011;49410;55.708;37.522;2022-11-18T07:16:05;6.95;;;3.10;;
63286;SDS011;49410;55.708;37.522;2022-11-18T07:18:33;7.82;;;3.17;;
63286;SDS011;49410;55.708;37.522;2022-11-18T07:21:01;9.60;;;3.53;;
63286;SDS011;49410;55.708;37.522;2022-11-18T07:23:29;8.80;;;3.72;;
63286;SDS011;49410;55.708;37.522;2022-11-18T07:25:55;7.55;;;3.25;;
63286;SDS011;49410;55.708;37.522;2022-11-18T07:28:21;7.43;;;3.13;;
63286;SDS011;49410;55.708;37.522;2022-11-18T07:33:11;7.05;;;3.15;;
63286;SDS011;49410;55.708;37.522;2022-11-18T07:35:37;6.00;;;2.85;;
63286;SDS011;49410;55.708;37.522;2022-11-18T07:38:02;7.47;;;3.17;;
63286;SDS011;49410;55.708;37.522;2022-11-18T07:40:28;7.47;;;3.25;;
63286;SDS011;49410;55.708;37.522;2022-11-18T07:42:54;8.30;;;2.97;;
63286;SDS011;49410;55.708;37.522;2022-11-18T07:45:19;7.72;;;2.78;;
63286;SDS011;49410;55.708;37.522;2022-11-18T07:47:45;7.07;;;2.78;;
63286;SDS011;49410;55.708;37.522;2022-11-18T07:52:35;8.88;;;3.33;;
63286;SDS011;49410;55.708;37.522;2022-11-18T07:57:26;7.95;;;3.17;;
63286;SDS011;49410;55.708;37.522;2022-11-18T07:59:52;8.68;;;3.75;;
63286;SDS011;49410;55.708;37.522;2022-11-18T08:02:17;9.00;;;3.80;;
63286;SDS011;49410;55.708;37.522;2022-11-18T08:04:43;10.02;;;3.60;;
63286;SDS011;49410;55.708;37.522;2022-11-18T08:07:08;8.75;;;3.35;;
63286;SDS011;49410;55.708;37.522;2022-11-18T08:09:34;8.20;;;3.53;;
63286;SDS011;49410;55.708;37.522;2022-11-18T08:12:00;11.30;;;4.00;;
63286;SDS011;49410;55.708;37.522;2022-11-18T08:14:26;6.35;;;2.95;;
63286;SDS011;49410;55.708;37.522;2022-11-18T08:16:52;10.13;;;4.00;;
63286;SDS011;49410;55.708;37.522;2022-11-18T08:19:18;5.47;;;2.45;;
63286;SDS011;49410;55.708;37.522;2022-11-18T08:21:44;8.77;;;3.22;;
63286;SDS011;49410;55.708;37.522;2022-11-18T08:24:09;8.55;;;3.65;;
63286;SDS011;49410;55.708;37.522;2022-11-18T08:26:35;9.23;;;3.50;;
63286;SDS011;49410;55.708;37.522;2022-11-18T08:29:00;9.75;;;3.95;;
63286;SDS011;49410;55.708;37.522;2022-11-18T08:31:27;7.53;;;3.42;;
63286;SDS011;49410;55.708;37.522;2022-11-18T08:33:55;10.65;;;3.95;;
63286;SDS011;49410;55.708;37.522;2022-11-18T08:36:21;9.43;;;3.72;;
63286;SDS011;49410;55.708;37.522;2022-11-18T08:38:50;10.27;;;3.42;;
63286;SDS011;49410;55.708;37.522;2022-11-18T08:43:43;7.65;;;3.22;;
63286;SDS011;49410;55.708;37.522;2022-11-18T08:48:34;5.50;;;2.45;;
63286;SDS011;49410;55.708;37.522;2022-11-18T08:50:59;5.88;;;2.60;;
63286;SDS011;49410;55.708;37.522;2022-11-18T08:55:54;7.05;;;2.95;;
63286;SDS011;49410;55.708;37.522;2022-11-18T08:58:21;8.48;;;3.42;;
63286;SDS011;49410;55.708;37.522;2022-11-18T09:03:12;9.85;;;4.05;;
63286;SDS011;49410;55.708;37.522;2022-11-18T09:08:03;7.57;;;3.03;;
63286;SDS011;49410;55.708;37.522;2022-11-18T09:10:29;8.43;;;3.63;;
63286;SDS011;49410;55.708;37.522;2022-11-18T09:12:54;7.68;;;3.65;;
63286;SDS011;49410;55.708;37.522;2022-11-18T09:15:20;8.43;;;4.07;;
63286;SDS011;49410;55.708;37.522;2022-11-18T09:17:48;7.93;;;3.35;;
63286;SDS011;49410;55.708;37.522;2022-11-18T09:22:40;8.95;;;3.65;;
63286;SDS011;49410;55.708;37.522;2022-11-18T09:25:05;10.32;;;3.70;;
63286;SDS011;49410;55.708;37.522;2022-11-18T09:27:31;8.07;;;3.58;;
63286;SDS011;49410;55.708;37.522;2022-11-18T09:32:22;8.68;;;3.90;;
63286;SDS011;49410;55.708;37.522;2022-11-18T09:34:47;8.02;;;3.75;;
63286;SDS011;49410;55.708;37.522;2022-11-18T09:39:38;7.35;;;3.92;;
63286;SDS011;49410;55.708;37.522;2022-11-18T09:47:40;10.13;;;4.05;;
63286;SDS011;49410;55.708;37.522;2022-11-18T09:52:45;9.80;;;3.95;;
63286;SDS011;49410;55.708;37.522;2022-11-18T09:55:19;10.95;;;3.85;;
63286;SDS011;49410;55.708;37.522;2022-11-18T10:05:54;11.02;;;4.03;;
63286;SDS011;49410;55.708;37.522;2022-11-18T10:11:34;11.35;;;3.90;;
63286;SDS011;49410;55.708;37.522;2022-11-18T10:19:42;9.23;;;4.05;;
63286;SDS011;49410;55.708;37.522;2022-11-18T10:22:26;7.57;;;3.10;;
63286;SDS011;49410;55.708;37.522;2022-11-18T10:24:56;6.75;;;2.72;;
63286;SDS011;49410;55.708;37.522;2022-11-18T10:27:33;9.75;;;4.03;;
63286;SDS011;49410;55.708;37.522;2022-11-18T10:30:05;9.38;;;3.47;;
63286;SDS011;49410;55.708;37.522;2022-11-18T10:32:35;11.52;;;4.63;;
63286;SDS011;49410;55.708;37.522;2022-11-18T10:35:37;9.88;;;3.72;;
63286;SDS011;49410;55.708;37.522;2022-11-18T10:38:04;9.15;;;3.58;;
63286;SDS011;49410;55.708;37.522;2022-11-18T10:40:44;8.65;;;3.80;;
63286;SDS011;49410;55.708;37.522;2022-11-18T10:43:54;9.73;;;3.83;;
63286;SDS011;49410;55.708;37.522;2022-11-18T10:49:10;9.38;;;3.65;;
63286;SDS011;49410;55.708;37.522;2022-11-18T10:54:28;9.25;;;3.78;;
63286;SDS011;49410;55.708;37.522;2022-11-18T10:59:31;11.48;;;4.30;;
63286;SDS011;49410;55.708;37.522;2022-11-18T11:02:46;10.25;;;4.18;;
63286;SDS011;49410;55.708;37.522;2022-11-18T11:04:55;8.32;;;3.42;;
63286;SDS011;49410;55.708;37.522;2022-11-18T11:12:24;7.72;;;3.25;;
63286;SDS011;49410;55.708;37.522;2022-11-18T11:14:53;10.25;;;4.45;;
63286;SDS011;49410;55.708;37.522;2022-11-18T11:17:26;8.45;;;3.20;;
63286;SDS011;49410;55.708;37.522;2022-11-18T11:22:39;9.63;;;4.07;;
63286;SDS011;49410;55.708;37.522;2022-11-18T11:25:13;10.15;;;4.10;;
63286;SDS011;49410;55.708;37.522;2022-11-18T11:27:59;6.03;;;2.53;;
63286;SDS011;49410;55.708;37.522;2022-11-18T11:30:34;9.20;;;3.75;;
63286;SDS011;49410;55.708;37.522;2022-11-18T11:49:57;10.13;;;3.83;;
63286;SDS011;49410;55.708;37.522;2022-11-18T11:55:09;9.80;;;3.83;;
63286;SDS011;49410;55.708;37.522;2022-11-18T12:00:48;8.63;;;3.40;;
63286;SDS011;49410;55.708;37.522;2022-11-18T12:03:31;7.78;;;3.50;;
63286;SDS011;49410;55.708;37.522;2022-11-18T12:05:58;9.00;;;3.72;;
63286;SDS011;49410;55.708;37.522;2022-11-18T12:10:52;8.30;;;3.75;;
63286;SDS011;49410;55.708;37.522;2022-11-18T12:16:19;8.43;;;3.40;;
63286;SDS011;49410;55.708;37.522;2022-11-18T12:26:49;13.55;;;3.67;;
63286;SDS011;49410;55.708;37.522;2022-11-18T12:29:20;11.30;;;3.90;;
63286;SDS011;49410;55.708;37.522;2022-11-18T12:31:51;8.98;;;3.33;;
63286;SDS011;49410;55.708;37.522;2022-11-18T12:39:56;8.02;;;3.20;;
63286;SDS011;49410;55.708;37.522;2022-11-18T12:48:49;10.60;;;3.33;;
63286;SDS011;49410;55.708;37.522;2022-11-18T12:50:58;8.90;;;3.53;;
63286;SDS011;49410;55.708;37.522;2022-11-18T12:56:20;11.05;;;4.18;;
63286;SDS011;49410;55.708;37.522;2022-11-18T12:58:49;11.00;;;4.22;;
63286;SDS011;49410;55.708;37.522;2022-11-18T13:01:18;11.60;;;4.15;;
63286;SDS011;49410;55.708;37.522;2022-11-18T13:03:45;9.27;;;3.85;;
63286;SDS011;49410;55.708;37.522;2022-11-18T13:08:43;9.30;;;4.38;;
63286;SDS011;49410;55.708;37.522;2022-11-18T13:11:14;11.32;;;3.83;;
63286;SDS011;49410;55.708;37.522;2022-11-18T13:14:00;10.82;;;4.05;;
63286;SDS011;49410;55.708;37.522;2022-11-18T13:21:55;8.55;;;3.38;;
63286;SDS011;49410;55.708;37.522;2022-11-18T13:24:44;10.48;;;3.97;;
63286;SDS011;49410;55.708;37.522;2022-11-18T13:27:21;8.13;;;4.10;;
63286;SDS011;49410;55.708;37.522;2022-11-18T13:32:27;10.45;;;4.00;;
63286;SDS011;49410;55.708;37.522;2022-11-18T13:34:55;10.55;;;3.47;;
63286;SDS011;49410;55.708;37.522;2022-11-18T13:37:23;7.93;;;3.10;;
63286;SDS011;49410;55.708;37.522;2022-11-18T13:39:54;7.18;;;3.70;;
63286;SDS011;49410;55.708;37.522;2022-11-18T13:47:24;9.68;;;3.45;;
63286;SDS011;49410;55.708;37.522;2022-11-18T13:52:42;8.02;;;3.15;;
63286;SDS011;49410;55.708;37.522;2022-11-18T13:55:36;9.60;;;3.55;;
63286;SDS011;49410;55.708;37.522;2022-11-18T13:58:53;8.20;;;3.42;;
63286;SDS011;49410;55.708;37.522;2022-11-18T14:01:03;8.88;;;4.13;;
63286;SDS011;49410;55.708;37.522;2022-11-18T14:04:01;7.78;;;3.47;;
63286;SDS011;49410;55.708;37.522;2022-11-18T14:06:32;8.65;;;3.72;;
63286;SDS011;49410;55.708;37.522;2022-11-18T14:09:20;9.32;;;3.60;;
63286;SDS011;49410;55.708;37.522;2022-11-18T14:12:02;7.68;;;3.58;;
63286;SDS011;49410;55.708;37.522;2022-11-18T14:14:45;7.88;;;3.63;;
63286;SDS011;49410;55.708;37.522;2022-11-18T14:19:55;11.55;;;4.30;;
63286;SDS011;49410;55.708;37.522;2022-11-18T14:22:26;7.35;;;3.30;;
63286;SDS011;49410;55.708;37.522;2022-11-18T14:24:57;9.25;;;3.33;;
63286;SDS011;49410;55.708;37.522;2022-11-18T14:27:40;7.20;;;3.13;;
63286;SDS011;49410;55.708;37.522;2022-11-18T14:33:07;11.02;;;4.18;;
63286;SDS011;49410;55.708;37.522;2022-11-18T14:35:34;9.25;;;3.78;;
63286;SDS011;49410;55.708;37.522;2022-11-18T14:40:25;7.93;;;3.28;;
63286;SDS011;49410;55.708;37.522;2022-11-18T14:45:15;6.85;;;3.03;;
63286;SDS011;49410;55.708;37.522;2022-11-18T14:50:16;7.38;;;2.58;;
63286;SDS011;49410;55.708;37.522;2022-11-18T14:52:41;8.57;;;3.95;;
63286;SDS011;49410;55.708;37.522;2022-11-18T14:57:32;9.77;;;3.65;;
63286;SDS011;49410;55.708;37.522;2022-11-18T14:59:58;8.27;;;3.42;;
63286;SDS011;49410;55.708;37.522;2022-11-18T15:02:23;8.05;;;3.40;;
63286;SDS011;49410;55.708;37.522;2022-11-18T15:04:49;8.48;;;3.97;;
63286;SDS011;49410;55.708;37.522;2022-11-18T15:07:16;7.85;;;3.15;;
63286;SDS011;49410;55.708;37.522;2022-11-18T15:12:07;9.10;;;4.05;;
63286;SDS011;49410;55.708;37.522;2022-11-18T15:14:33;7.47;;;3.33;;
63286;SDS011;49410;55.708;37.522;2022-11-18T15:17:00;8.18;;;3.35;;
63286;SDS011;49410;55.708;37.522;2022-11-18T15:19:26;9.27;;;3.65;;
63286;SDS011;49410;55.708;37.522;2022-11-18T15:21:52;9.55;;;3.55;;
63286;SDS011;49410;55.708;37.522;2022-11-18T15:26:44;8.63;;;2.78;;
63286;SDS011;49410;55.708;37.522;2022-11-18T15:29:18;10.02;;;3.20;;
63286;SDS011;49410;55.708;37.522;2022-11-18T15:31:46;7.57;;;3.67;;
63286;SDS011;49410;55.708;37.522;2022-11-18T15:34:12;8.77;;;3.22;;
63286;SDS011;49410;55.708;37.522;2022-11-18T15:36:39;9.57;;;4.00;;
63286;SDS011;49410;55.708;37.522;2022-11-18T15:39:04;9.55;;;2.90;;
63286;SDS011;49410;55.708;37.522;2022-11-18T15:41:30;7.15;;;2.90;;
63286;SDS011;49410;55.708;37.522;2022-11-18T15:46:24;7.88;;;2.90;;
63286;SDS011;49410;55.708;37.522;2022-11-18T15:48:52;12.00;;;3.85;;
63286;SDS011;49410;55.708;37.522;2022-11-18T15:51:18;9.48;;;3.33;;
63286;SDS011;49410;55.708;37.522;2022-11-18T15:53:45;10.98;;;4.00;;
63286;SDS011;49410;55.708;37.522;2022-11-18T15:58:39;9.73;;;3.55;;
63286;SDS011;49410;55.708;37.522;2022-11-18T16:03:30;7.50;;;3.60;;
63286;SDS011;49410;55.708;37.522;2022-11-18T16:05:55;8.40;;;3.17;;
63286;SDS011;49410;55.708;37.522;2022-11-18T16:10:46;7.97;;;3.30;;
63286;SDS011;49410;55.708;37.522;2022-11-18T16:13:30;11.15;;;3.58;;
63286;SDS011;49410;55.708;37.522;2022-11-18T16:18:21;7.03;;;2.75;;
63286;SDS011;49410;55.708;37.522;2022-11-18T16:20:46;9.60;;;3.45;;
63286;SDS011;49410;55.708;37.522;2022-11-18T16:23:12;7.55;;;3.25;;
63286;SDS011;49410;55.708;37.522;2022-11-18T16:28:07;7.68;;;3.15;;
63286;SDS011;49410;55.708;37.522;2022-11-18T16:33:17;9.52;;;3.50;;
63286;SDS011;49410;55.708;37.522;2022-11-18T16:38:12;7.43;;;3.08;;
63286;SDS011;49410;55.708;37.522;2022-11-18T16:43:03;7.70;;;2.97;;
63286;SDS011;49410;55.708;37.522;2022-11-18T16:47:54;8.10;;;3.20;;
63286;SDS011;49410;55.708;37.522;2022-11-18T16:50:19;6.78;;;3.20;;
63286;SDS011;49410;55.708;37.522;2022-11-18T16:52:45;8.38;;;3.13;;
63286;SDS011;49410;55.708;37.522;2022-11-18T16:57:36;8.75;;;3.05;;
63286;SDS011;49410;55.708;37.522;2022-11-18T17:02:27;7.20;;;3.15;;
63286;SDS011;49410;55.708;37.522;2022-11-18T17:04:53;8.73;;;3.63;;
63286;SDS011;49410;55.708;37.522;2022-11-18T17:09:44;8.40;;;3.33;;
63286;SDS011;49410;55.708;37.522;2022-11-18T17:14:35;11.48;;;3.60;;
63286;SDS011;49410;55.708;37.522;2022-11-18T17:17:02;8.68;;;3.42;;
63286;SDS011;49410;55.708;37.522;2022-11-18T17:21:53;7.78;;;3.10;;
63286;SDS011;49410;55.708;37.522;2022-11-18T17:24:19;8.07;;;3.75;;
63286;SDS011;49410;55.708;37.522;2022-11-18T17:26:46;10.18;;;3.60;;
63286;SDS011;49410;55.708;37.522;2022-11-18T17:31:38;7.50;;;3.15;;
63286;SDS011;49410;55.708;37.522;2022-11-18T17:34:05;6.47;;;2.85;;
63286;SDS011;49410;55.708;37.522;2022-11-18T17:38:57;7.65;;;3.45;;
63286;SDS011;49410;55.708;37.522;2022-11-18T17:41:25;8.50;;;3.83;;
63286;SDS011;49410;55.708;37.522;2022-11-18T17:44:10;9.20;;;3.50;;
63286;SDS011;49410;55.708;37.522;2022-11-18T17:46:38;10.30;;;3.20;;
63286;SDS011;49410;55.708;37.522;2022-11-18T17:51:31;8.50;;;3.40;;
63286;SDS011;49410;55.708;37.522;2022-11-18T17:56:22;9.85;;;4.20;;
63286;SDS011;49410;55.708;37.522;2022-11-18T17:58:48;9.02;;;3.40;;
63286;SDS011;49410;55.708;37.522;2022-11-18T18:01:16;13.35;;;3.95;;
63286;SDS011;49410;55.708;37.522;2022-11-18T18:03:42;9.65;;;3.47;;
63286;SDS011;49410;55.708;37.522;2022-11-18T18:08:35;8.55;;;3.63;;
63286;SDS011;49410;55.708;37.522;2022-11-18T18:13:30;9.13;;;3.55;;
63286;SDS011;49410;55.708;37.522;2022-11-18T18:16:15;9.70;;;3.67;;
63286;SDS011;49410;55.708;37.522;2022-11-18T18:21:06;9.98;;;3.33;;
63286;SDS011;49410;55.708;37.522;2022-11-18T18:26:05;9.90;;;3.60;;
63286;SDS011;49410;55.708;37.522;2022-11-18T18:28:32;10.00;;;3.53;;
63286;SDS011;49410;55.708;37.522;2022-11-18T18:30:58;11.27;;;4.45;;
63286;SDS011;49410;55.708;37.522;2022-11-18T18:33:28;10.93;;;3.80;;
63286;SDS011;49410;55.708;37.522;2022-11-18T18:38:23;12.80;;;3.33;;
63286;SDS011;49410;55.708;37.522;2022-11-18T18:40:49;11.18;;;3.55;;
63286;SDS011;49410;55.708;37.522;2022-11-18T18:43:14;8.30;;;3.67;;
63286;SDS011;49410;55.708;37.522;2022-11-18T18:48:23;8.05;;;3.83;;
63286;SDS011;49410;55.708;37.522;2022-11-18T18:53:14;7.55;;;2.83;;
63286;SDS011;49410;55.708;37.522;2022-11-18T18:58:06;9.85;;;3.28;;
63286;SDS011;49410;55.708;37.522;2022-11-18T19:00:31;7.80;;;3.53;;
63286;SDS011;49410;55.708;37.522;2022-11-18T19:05:23;9.07;;;3.80;;
63286;SDS011;49410;55.708;37.522;2022-11-18T19:10:14;9.25;;;3.40;;
63286;SDS011;49410;55.708;37.522;2022-11-18T19:15:09;10.40;;;3.80;;
63286;SDS011;49410;55.708;37.522;2022-11-18T19:17:36;13.35;;;4.13;;
63286;SDS011;49410;55.708;37.522;2022-11-18T19:22:45;9.38;;;4.00;;
63286;SDS011;49410;55.708;37.522;2022-11-18T19:27:36;7.72;;;3.92;;
63286;SDS011;49410;55.708;37.522;2022-11-18T19:32:28;7.90;;;3.28;;
63286;SDS011;49410;55.708;37.522;2022-11-18T19:37:19;10.07;;;4.55;;
63286;SDS011;49410;55.708;37.522;2022-11-18T19:39:45;9.90;;;3.95;;
63286;SDS011;49410;55.708;37.522;2022-11-18T19:42:10;9.75;;;4.07;;
63286;SDS011;49410;55.708;37.522;2022-11-18T19:44:36;9.80;;;4.30;;
63286;SDS011;49410;55.708;37.522;2022-11-18T19:49:27;10.18;;;4.03;;